This is the latest recevied weather packets stored in our database for station/object KQ4JKJ. If no packets are shown the sender has not sent any weather packets the latest 10 day(s).
| Time | Temp. | Humidity | Pressure | Rain* | Wind** | Luminosity | Snow |
|---|---|---|---|---|---|---|---|
| 1777578653 | 33.33° C | 49% | 1003.8 hPa | 0 mm | - | 582 W/m² | - |
| 1777578351 | 33.33° C | 50% | 1003.8 hPa | 0 mm | - | 627 W/m² | - |
| 1777578048 | 33.89° C | 49% | 1003.9 hPa | 0 mm | - | 574 W/m² | - |
| 1777577743 | 33.33° C | 49% | 1003.9 hPa | 0 mm | - | 620 W/m² | - |
| 1777577440 | 33.89° C | 47% | 1004 hPa | 0 mm | - | 623 W/m² | - |
| 1777577138 | 33.89° C | 48% | 1004 hPa | 0 mm | - | 638 W/m² | - |
| 1777576834 | 33.89° C | 48% | 1004.3 hPa | 0 mm | - | 622 W/m² | - |
| 1777576532 | 33.89° C | 47% | 1004.4 hPa | 0 mm | - | 709 W/m² | - |
| 1777576229 | 33.89° C | 48% | 1004.4 hPa | 0 mm | - | 624 W/m² | - |
| 1777575925 | 34.44° C | 48% | 1004.2 hPa | 0 mm | - | 429 W/m² | - |
| 1777575622 | 33.89° C | 49% | 1004.3 hPa | 0 mm | - | 713 W/m² | - |
| 1777575318 | 33.33° C | 50% | 1004.3 hPa | 0 mm | - | 760 W/m² | - |
| 1777575014 | 32.78° C | 51% | 1004.5 hPa | 0 mm | - | 301 W/m² | - |
| 1777574710 | 32.22° C | 53% | 1004.5 hPa | 0 mm | - | 761 W/m² | - |
| 1777574407 | 33.33° C | 50% | 1004.5 hPa | 0 mm | - | 796 W/m² | - |
| 1777574103 | 33.89° C | 49% | 1004.7 hPa | 0 mm | - | 771 W/m² | - |
| 1777573797 | 32.78° C | 51% | 1004.8 hPa | 0 mm | - | 777 W/m² | - |
| 1777573494 | 33.89° C | 50% | 1005.1 hPa | 0 mm | - | 168 W/m² | - |
| 1777573189 | 33.33° C | 50% | 1005.1 hPa | 0 mm | - | 947 W/m² | - |
| 1777572886 | 33.89° C | 49% | 1004.9 hPa | 0 mm | - | 711 W/m² | - |
| 1777572582 | 33.89° C | 49% | 1005 hPa | 0 mm | - | 592 W/m² | - |
| 1777572278 | 34.44° C | 48% | 1005.3 hPa | 0 mm | - | 724 W/m² | - |
| 1777571973 | 34.44° C | 48% | 1005.3 hPa | 0 mm | - | 796 W/m² | - |
| 1777571668 | 34.44° C | 48% | 1005.3 hPa | 0 mm | - | 799 W/m² | - |
| 1777571366 | 33.89° C | 49% | 1005.1 hPa | 0 mm | - | 864 W/m² | - |
* Rain latest hour (hover to see other rain measurements)
** Current wind speed in m/s (hover to see current wind gust speed)